Time;durP1;ratioP1;P1;durP2;ratioP2;P2;SDS_P1;SDS_P2;PMS_P1;PMS_P2;Temp;Humidity;BMP_temperature;BMP_pressure;BME280_temperature;BME280_humidity;BME280_pressure;Samples;Min_cycle;Max_cycle;Signal;HPM_P1;HPM_P2
2023/01/15 00:00:12;;;;;;;0.30;0.30;;;;;;;7.49;79.71;99474.06;5136319;28;20023;-82
2023/01/15 00:02:43;;;;;;;0.95;0.95;;;;;;;7.46;79.50;99475.03;5139673;28;20042;-82
2023/01/15 00:05:13;;;;;;;1.15;1.05;;;;;;;7.31;80.51;99486.00;5154555;28;20127;-82
2023/01/15 00:07:44;;;;;;;0.30;0.30;;;;;;;7.19;81.44;99488.09;5136469;28;20031;-82
2023/01/15 00:10:15;;;;;;;0.30;0.30;;;;;;;7.23;81.50;99494.06;5123138;28;20222;-82
2023/01/15 00:12:45;;;;;;;0.32;0.32;;;;;;;7.19;81.17;99498.53;5150883;28;20042;-82
2023/01/15 00:15:16;;;;;;;0.30;0.30;;;;;;;7.06;81.82;99484.19;5142197;28;20031;-82
2023/01/15 00:17:46;;;;;;;0.50;0.50;;;;;;;7.04;82.23;99493.81;5121304;28;20023;-82
2023/01/15 00:20:17;;;;;;;0.30;0.30;;;;;;;7.11;81.24;99500.53;5155369;28;20035;-82
2023/01/15 00:22:47;;;;;;;0.50;0.50;;;;;;;7.04;81.50;99492.06;5151146;28;20051;-82
2023/01/15 00:28:08;;;;;;;0.40;0.40;;;;;;;6.98;82.67;99499.25;5139259;28;20033;-82
2023/01/15 00:30:41;;;;;;;0.35;0.35;;;;;;;6.94;82.83;99495.88;5121239;28;20121;-81
2023/01/15 00:33:12;;;;;;;0.30;0.30;;;;;;;7.01;83.62;99488.69;5139382;28;20078;-80
2023/01/15 00:35:42;;;;;;;2.85;1.15;;;;;;;7.01;82.75;99488.69;5125189;28;20062;-81
2023/01/15 00:38:13;;;;;;;0.43;0.43;;;;;;;6.91;83.36;99475.09;5138311;28;20047;-82
2023/01/15 00:40:44;;;;;;;1.58;1.48;;;;;;;6.98;82.68;99483.59;5116881;28;20130;-82
2023/01/15 00:43:15;;;;;;;0.40;0.40;;;;;;;6.92;81.24;99475.06;5133166;28;20069;-82
2023/01/15 00:45:45;;;;;;;0.30;0.30;;;;;;;6.91;79.85;99468.13;5117999;28;20070;-82
2023/01/15 00:48:15;;;;;;;0.90;0.85;;;;;;;7.06;79.48;99456.34;5116827;28;20053;-82
2023/01/15 00:50:46;;;;;;;0.30;0.30;;;;;;;7.01;77.82;99446.97;5117094;28;20317;-81
2023/01/15 00:53:16;;;;;;;0.30;0.30;;;;;;;6.99;77.13;99448.75;5119687;28;20067;-82
2023/01/15 00:55:47;;;;;;;0.30;0.30;;;;;;;7.03;76.56;99445.16;5092200;28;20039;-82
2023/01/15 00:58:17;;;;;;;0.30;0.30;;;;;;;6.91;75.61;99436.84;5120618;28;20433;-82
2023/01/15 01:00:55;;;;;;;0.20;0.20;;;;;;;6.77;74.06;99452.06;5108950;28;20035;-82
2023/01/15 01:03:26;;;;;;;0.30;0.30;;;;;;;6.82;74.57;99452.78;5100021;29;20027;-82
2023/01/15 01:06:01;;;;;;;0.30;0.30;;;;;;;6.82;75.21;99452.78;5127163;28;20063;-82
2023/01/15 01:08:31;;;;;;;0.30;0.30;;;;;;;6.94;75.66;99425.47;5111394;29;20039;-82
2023/01/15 01:11:04;;;;;;;0.30;0.30;;;;;;;7.02;75.89;99423.47;5101537;28;20045;-82
2023/01/15 01:13:36;;;;;;;1.02;1.02;;;;;;;6.91;74.47;99446.44;5103448;29;20573;-82
2023/01/15 01:16:25;;;;;;;0.30;0.30;;;;;;;6.94;74.02;99435.91;5106820;29;20042;-82
2023/01/15 01:18:57;;;;;;;0.40;0.40;;;;;;;6.90;72.55;99471.63;5099310;29;20035;-82
2023/01/15 01:21:28;;;;;;;0.30;0.30;;;;;;;6.87;72.51;99471.75;5116866;28;20054;-82
2023/01/15 01:24:00;;;;;;;0.20;0.20;;;;;;;6.84;72.70;99458.78;5103758;28;20035;-81
2023/01/15 01:26:30;;;;;;;0.30;0.30;;;;;;;6.77;71.59;99470.31;5122110;28;20027;-81
2023/01/15 01:29:01;;;;;;;0.30;0.30;;;;;;;6.72;72.42;99478.28;5140087;28;20030;-81
2023/01/15 01:31:32;;;;;;;0.95;0.93;;;;;;;6.73;71.54;99474.78;5109641;29;20411;-82
2023/01/15 01:34:03;;;;;;;0.40;0.40;;;;;;;6.70;71.72;99474.88;5126392;29;20035;-81
2023/01/15 01:36:35;;;;;;;0.68;0.68;;;;;;;6.69;72.15;99477.53;5117284;28;20035;-81
2023/01/15 01:39:07;;;;;;;0.93;0.93;;;;;;;6.72;72.27;99483.50;5118803;28;20023;-81
2023/01/15 01:41:38;;;;;;;0.30;0.30;;;;;;;6.72;72.45;99480.06;5124227;28;20067;-82
2023/01/15 01:44:33;;;;;;;0.30;0.30;;;;;;;6.76;72.22;99473.81;5124182;29;20082;-81
2023/01/15 01:47:07;;;;;;;2.28;1.00;;;;;;;6.75;72.86;99482.53;5106422;29;20043;-81
2023/01/15 01:49:39;;;;;;;0.30;0.30;;;;;;;6.82;72.61;99488.44;5116242;28;20071;-81
2023/01/15 01:52:24;;;;;;;0.30;0.30;;;;;;;6.72;73.75;99486.09;5115925;28;20039;-81
2023/01/15 01:54:55;;;;;;;0.30;0.30;;;;;;;6.77;73.06;99480.75;5132942;28;20040;-81
2023/01/15 01:57:26;;;;;;;0.30;0.30;;;;;;;6.75;72.88;99493.84;5105685;29;20102;-81
2023/01/15 01:59:58;;;;;;;0.55;0.55;;;;;;;6.83;73.35;99500.56;5108303;29;20047;-80
2023/01/15 02:02:28;;;;;;;0.30;0.30;;;;;;;6.86;73.46;99498.72;5120879;28;20047;-81
2023/01/15 02:05:00;;;;;;;0.40;0.40;;;;;;;6.83;72.76;99495.34;5116517;29;20031;-80
2023/01/15 02:07:32;;;;;;;0.30;0.30;;;;;;;6.77;72.97;99488.56;5122799;28;20039;-80
2023/01/15 02:10:03;;;;;;;0.30;0.30;;;;;;;6.72;73.42;99493.09;5107262;29;20031;-80
2023/01/15 02:12:37;;;;;;;3.08;0.93;;;;;;;6.78;73.85;99496.34;5118017;28;20139;-80
2023/01/15 02:15:10;;;;;;;0.30;0.30;;;;;;;6.76;73.85;99481.66;5116864;28;20046;-80
2023/01/15 02:17:48;;;;;;;0.30;0.30;;;;;;;6.80;73.43;99470.25;5112661;28;20043;-80
2023/01/15 02:20:31;;;;;;;1.48;1.05;;;;;;;6.70;73.44;99463.59;5097070;28;20059;-81
2023/01/15 02:23:27;;;;;;;0.30;0.30;;;;;;;6.84;73.79;99448.38;5120319;28;20031;-81
2023/01/15 02:26:12;;;;;;;0.30;0.30;;;;;;;6.80;73.14;99469.38;5101532;28;20043;-80
2023/01/15 02:28:46;;;;;;;0.30;0.30;;;;;;;6.70;72.95;99474.03;5118032;28;20042;-81
2023/01/15 02:31:22;;;;;;;0.30;0.30;;;;;;;6.76;73.35;99452.97;5098510;28;20073;-81
2023/01/15 02:33:57;;;;;;;0.30;0.30;;;;;;;6.72;73.37;99454.81;5117454;28;20070;-81
2023/01/15 02:36:32;;;;;;;0.28;0.28;;;;;;;6.74;73.28;99471.28;5116039;28;20059;-81
2023/01/15 02:39:09;;;;;;;0.70;0.70;;;;;;;6.75;73.24;99461.69;5122751;29;20042;-81
2023/01/15 02:41:45;;;;;;;0.20;0.20;;;;;;;6.72;73.19;99456.59;5113618;28;20055;-81
2023/01/15 02:44:20;;;;;;;0.30;0.30;;;;;;;6.59;73.00;99463.94;5117099;28;20114;-81
2023/01/15 02:46:54;;;;;;;0.30;0.30;;;;;;;6.71;73.50;99462.72;5140764;28;20093;-81
2023/01/15 02:49:25;;;;;;;0.50;0.50;;;;;;;6.76;72.95;99442.53;5109260;29;20650;-81
2023/01/15 02:52:05;;;;;;;0.70;0.70;;;;;;;6.75;72.85;99453.88;5128863;28;20047;-81
2023/01/15 02:54:46;;;;;;;0.73;0.73;;;;;;;6.69;72.93;99451.47;5145904;28;20039;-81
2023/01/15 02:57:19;;;;;;;0.30;0.30;;;;;;;6.60;73.27;99463.88;5139935;28;20046;-81
2023/01/15 02:59:54;;;;;;;0.30;0.30;;;;;;;6.67;73.42;99454.13;5125336;28;20058;-81
2023/01/15 03:02:31;;;;;;;0.30;0.30;;;;;;;6.72;73.11;99446.16;5127183;28;20070;-80
2023/01/15 03:05:10;;;;;;;0.30;0.30;;;;;;;6.75;73.43;99448.66;5148017;28;20026;-80
2023/01/15 03:07:51;;;;;;;0.80;0.63;;;;;;;6.71;73.05;99444.47;5139087;28;20035;-80
2023/01/15 03:10:34;;;;;;;0.30;0.30;;;;;;;6.69;72.94;99435.81;5148404;28;20179;-81
2023/01/15 03:13:07;;;;;;;0.30;0.30;;;;;;;6.77;73.31;99433.81;5148468;28;20027;-80
2023/01/15 03:19:01;;;;;;;0.30;0.30;;;;;;;6.75;73.19;99430.41;5144769;28;20118;-81
2023/01/15 03:21:55;;;;;;;0.32;0.32;;;;;;;6.73;73.25;99432.22;5102896;28;20069;-81
2023/01/15 03:24:47;;;;;;;0.30;0.30;;;;;;;6.69;74.00;99426.28;5115833;28;20122;-80
2023/01/15 03:27:18;;;;;;;0.30;0.30;;;;;;;6.69;73.42;99426.28;5105361;28;20034;-81
2023/01/15 03:29:57;;;;;;;0.38;0.38;;;;;;;6.71;73.53;99428.81;5132189;28;20090;-81
2023/01/15 03:32:30;;;;;;;0.30;0.30;;;;;;;6.68;73.39;99434.13;5104158;28;20042;-81
2023/01/15 03:35:02;;;;;;;0.30;0.30;;;;;;;6.67;73.00;99419.38;5139789;28;20115;-82
2023/01/15 03:37:33;;;;;;;0.70;0.70;;;;;;;6.61;72.39;99413.47;5106616;28;20039;-81
2023/01/15 03:40:05;;;;;;;0.30;0.30;;;;;;;6.68;73.28;99413.25;5117707;28;20034;-81
2023/01/15 03:43:39;;;;;;;0.30;0.30;;;;;;;6.67;73.08;99407.22;5132269;28;20636;-80
2023/01/15 03:45:47;;;;;;;0.40;0.40;;;;;;;6.68;73.11;99415.88;5120942;28;20117;-81
2023/01/15 03:48:21;;;;;;;0.30;0.30;;;;;;;6.68;72.84;99414.13;5115610;28;20277;-81
2023/01/15 03:51:00;;;;;;;0.40;0.40;;;;;;;6.58;71.98;99415.31;5115709;28;20034;-81
2023/01/15 03:53:47;;;;;;;0.30;0.30;;;;;;;6.63;72.36;99429.03;5117536;28;20030;-81
2023/01/15 03:56:43;;;;;;;0.30;0.30;;;;;;;6.57;71.88;99432.69;5132108;28;20035;-81
2023/01/15 03:59:22;;;;;;;0.30;0.30;;;;;;;6.56;72.08;99436.22;5118795;28;20546;-81
2023/01/15 04:01:54;;;;;;;0.40;0.40;;;;;;;6.58;71.92;99434.41;5122151;28;20502;-81
2023/01/15 04:04:26;;;;;;;0.30;0.30;;;;;;;6.56;71.76;99425.81;5108186;29;20070;-81
2023/01/15 04:06:57;;;;;;;0.63;0.63;;;;;;;6.58;72.12;99429.19;5108849;28;20024;-81
2023/01/15 04:09:28;;;;;;;0.50;0.50;;;;;;;6.57;71.93;99417.06;5086442;29;20023;-81
2023/01/15 04:12:00;;;;;;;0.30;0.30;;;;;;;6.56;72.19;99419.72;5107735;28;20040;-82
2023/01/15 04:14:31;;;;;;;0.30;0.30;;;;;;;6.52;72.15;99412.91;5117242;29;20078;-81
2023/01/15 04:17:02;;;;;;;0.30;0.30;;;;;;;6.51;71.87;99417.25;5131354;28;20034;-81
2023/01/15 04:19:32;;;;;;;0.30;0.30;;;;;;;6.52;72.24;99415.53;5126078;28;20039;-81
2023/01/15 04:22:03;;;;;;;6.50;1.48;;;;;;;6.46;72.35;99424.38;5145533;28;20027;-81
2023/01/15 04:24:34;;;;;;;0.30;0.30;;;;;;;6.43;72.82;99427.94;5126677;28;20031;-81
2023/01/15 04:27:04;;;;;;;0.45;0.45;;;;;;;6.45;73.13;99427.88;5126119;28;20035;-81
2023/01/15 04:29:35;;;;;;;0.30;0.30;;;;;;;6.44;73.01;99441.81;5119577;28;20023;-81
2023/01/15 04:32:06;;;;;;;1.85;1.75;;;;;;;6.35;73.70;99431.66;5140787;28;20118;-81
2023/01/15 04:34:36;;;;;;;0.50;0.50;;;;;;;6.44;73.83;99436.59;5128503;28;20069;-80
2023/01/15 04:37:07;;;;;;;1.02;1.02;;;;;;;6.37;73.94;99435.06;5134110;28;20078;-80
2023/01/15 04:39:37;;;;;;;0.30;0.30;;;;;;;6.38;73.97;99427.19;5133922;28;20031;-80
2023/01/15 04:45:00;;;;;;;0.40;0.40;;;;;;;6.37;73.86;99420.28;5136426;28;20041;-80
2023/01/15 04:47:31;;;;;;;0.30;0.30;;;;;;;6.38;73.99;99413.34;5118453;28;20526;-80
2023/01/15 04:50:01;;;;;;;9.23;2.28;;;;;;;6.33;74.38;99423.03;5129484;28;20031;-80
2023/01/15 04:52:32;;;;;;;0.68;0.68;;;;;;;6.40;74.27;99427.19;5116286;28;20696;-80
2023/01/15 04:55:03;;;;;;;0.47;0.43;;;;;;;6.37;74.45;99429.88;5137054;28;20028;-81
2023/01/15 04:57:35;;;;;;;0.47;0.47;;;;;;;6.38;74.13;99426.38;5119983;28;20187;-81
2023/01/15 05:00:07;;;;;;;0.30;0.30;;;;;;;6.39;74.09;99430.69;5116877;28;20026;-81
2023/01/15 05:02:37;;;;;;;0.30;0.30;;;;;;;6.39;74.67;99423.69;5117447;28;20043;-81
2023/01/15 05:05:08;;;;;;;0.30;0.30;;;;;;;6.40;74.41;99422.81;5136462;28;20048;-80
2023/01/15 05:07:38;;;;;;;2.30;1.40;;;;;;;6.47;75.09;99420.88;5120679;28;20034;-81
2023/01/15 05:10:09;;;;;;;0.30;0.30;;;;;;;6.50;74.30;99431.19;5120859;28;20026;-81
2023/01/15 05:12:40;;;;;;;0.55;0.55;;;;;;;6.38;74.23;99426.38;5115591;28;20066;-81
2023/01/15 05:15:10;;;;;;;0.65;0.65;;;;;;;6.42;74.51;99438.38;5120807;28;20042;-81
2023/01/15 05:17:41;;;;;;;0.40;0.40;;;;;;;6.47;74.28;99426.09;5119703;28;20708;-81
2023/01/15 05:20:14;;;;;;;0.30;0.30;;;;;;;6.35;74.53;99429.06;5112281;28;20123;-81
2023/01/15 05:22:44;;;;;;;0.40;0.40;;;;;;;6.44;74.14;99436.59;5132059;28;20041;-81
2023/01/15 05:25:15;;;;;;;0.30;0.30;;;;;;;6.30;74.60;99423.97;5131438;28;20027;-81
2023/01/15 05:27:45;;;;;;;0.30;0.30;;;;;;;6.32;74.81;99436.97;5120752;28;20095;-81
2023/01/15 05:30:16;;;;;;;0.30;0.30;;;;;;;6.27;74.39;99431.91;5123934;28;20035;-81
2023/01/15 05:32:47;;;;;;;0.93;0.57;;;;;;;6.32;74.70;99429.16;5131977;28;20038;-81
2023/01/15 05:35:17;;;;;;;1.23;1.15;;;;;;;6.35;74.52;99431.66;5104712;28;20026;-81
2023/01/15 05:37:48;;;;;;;0.30;0.30;;;;;;;6.31;75.00;99425.69;5128119;28;20135;-81
2023/01/15 05:40:18;;;;;;;0.30;0.30;;;;;;;6.30;73.93;99424.84;5134885;28;20393;-80
2023/01/15 05:42:48;;;;;;;2.88;2.67;;;;;;;6.27;74.50;99424.94;5115094;28;20078;-81
2023/01/15 05:45:19;;;;;;;0.82;0.82;;;;;;;6.22;74.59;99415.53;5119261;28;20560;-81
2023/01/15 05:47:52;;;;;;;0.30;0.30;;;;;;;6.28;74.43;99423.19;5137303;28;20019;-80
2023/01/15 05:50:22;;;;;;;0.40;0.40;;;;;;;6.27;74.41;99424.94;5118275;28;20053;-81
2023/01/15 05:52:53;;;;;;;0.30;0.30;;;;;;;6.28;74.34;99431.84;5100148;28;20020;-80
2023/01/15 05:55:23;;;;;;;0.30;0.30;;;;;;;6.25;74.87;99431.09;5133123;28;20026;-81
2023/01/15 05:57:54;;;;;;;0.30;0.30;;;;;;;6.27;75.22;99431.91;5122626;28;20026;-80
2023/01/15 06:00:24;;;;;;;0.30;0.30;;;;;;;6.32;74.73;99447.41;5113813;28;20607;-80
2023/01/15 06:02:55;;;;;;;0.40;0.40;;;;;;;6.24;74.83;99439.78;5121156;28;20036;-80
2023/01/15 06:05:25;;;;;;;0.30;0.30;;;;;;;6.26;75.08;99435.41;5125985;28;20116;-81
2023/01/15 06:07:56;;;;;;;0.30;0.30;;;;;;;6.20;75.16;99443.41;5144104;28;20027;-81
2023/01/15 06:10:26;;;;;;;0.30;0.30;;;;;;;6.16;75.28;99447.81;5135211;28;20061;-82
2023/01/15 06:12:57;;;;;;;0.30;0.30;;;;;;;6.17;75.50;99459.94;5120814;28;20031;-82
2023/01/15 06:15:27;;;;;;;0.30;0.30;;;;;;;6.20;75.74;99454.66;5122668;28;20042;-82
2023/01/15 06:17:57;;;;;;;0.52;0.52;;;;;;;6.19;75.93;99463.38;5118415;28;20069;-82
2023/01/15 06:20:28;;;;;;;0.45;0.45;;;;;;;6.13;74.95;99469.59;5120214;28;20035;-80
2023/01/15 06:22:58;;;;;;;0.30;0.30;;;;;;;6.12;75.57;99473.09;5105320;28;20093;-81
2023/01/15 06:25:34;;;;;;;0.30;0.30;;;;;;;6.18;75.82;99471.25;5123663;28;20027;-81
2023/01/15 06:28:06;;;;;;;0.70;0.70;;;;;;;6.11;75.32;99470.56;5105752;28;20030;-81
2023/01/15 06:30:38;;;;;;;0.30;0.30;;;;;;;6.12;75.58;99456.63;5134041;28;20027;-81
2023/01/15 06:33:09;;;;;;;1.30;1.20;;;;;;;6.20;75.27;99464.25;5103093;28;20062;-81
2023/01/15 06:35:39;;;;;;;0.40;0.40;;;;;;;6.11;75.45;99473.16;5114600;28;20047;-83
2023/01/15 06:38:09;;;;;;;0.30;0.30;;;;;;;6.12;75.38;99473.09;5118523;28;20053;-83
2023/01/15 06:40:40;;;;;;;0.30;0.30;;;;;;;6.11;75.00;99475.75;5108645;28;20038;-81
2023/01/15 06:48:49;;;;;;;1.55;1.27;;;;;;;6.07;75.40;99476.75;5134354;28;20061;-81
2023/01/15 06:51:20;;;;;;;0.57;0.57;;;;;;;6.06;75.48;99482.88;5111595;28;20432;-81
2023/01/15 06:53:50;;;;;;;0.50;0.50;;;;;;;6.06;75.42;99483.72;5111255;28;20094;-80
2023/01/15 06:56:21;;;;;;;0.30;0.30;;;;;;;6.08;75.69;99475.84;5132011;28;20035;-81
2023/01/15 06:58:51;;;;;;;0.30;0.30;;;;;;;6.04;75.83;99482.03;5108531;28;20154;-80
2023/01/15 07:01:21;;;;;;;0.30;0.30;;;;;;;6.03;76.31;99478.59;5101203;29;20122;-81
2023/01/15 07:03:52;;;;;;;0.40;0.40;;;;;;;6.04;76.18;99474.25;5110343;28;20039;-80
2023/01/15 07:06:22;;;;;;;0.50;0.50;;;;;;;6.03;75.88;99472.53;5107497;28;20561;-78
2023/01/15 07:08:53;;;;;;;0.30;0.30;;;;;;;6.07;75.62;99477.59;5100613;29;20086;-77
2023/01/15 07:11:23;;;;;;;0.30;0.30;;;;;;;6.08;76.18;99483.66;5111744;28;20122;-77
2023/01/15 07:14:06;;;;;;;0.30;0.30;;;;;;;6.05;75.27;99487.19;5111283;29;20066;-77
2023/01/15 07:16:36;;;;;;;22.25;2.75;;;;;;;6.06;74.96;99482.88;5108778;28;20067;-81
2023/01/15 07:19:08;;;;;;;0.50;0.50;;;;;;;6.05;74.98;99484.59;5126641;28;20035;-80
2023/01/15 07:21:39;;;;;;;0.40;0.40;;;;;;;6.08;74.99;99488.88;5110643;28;20101;-83
2023/01/15 07:24:10;;;;;;;1.48;1.38;;;;;;;6.03;75.03;99493.34;5131036;28;20027;-79
2023/01/15 07:26:42;;;;;;;0.30;0.30;;;;;;;6.06;75.43;99496.72;5135972;28;20121;-82
2023/01/15 07:29:12;;;;;;;0.45;0.45;;;;;;;6.12;75.30;99498.31;5111549;28;20031;-81
2023/01/15 07:31:43;;;;;;;0.40;0.40;;;;;;;6.08;75.33;99501.88;5102019;28;20036;-83
2023/01/15 07:34:14;;;;;;;0.40;0.40;;;;;;;6.00;75.33;99499.50;5120772;28;20120;-82
2023/01/15 07:36:44;;;;;;;0.30;0.30;;;;;;;5.98;75.23;99517.75;5108169;28;20039;-82
2023/01/15 07:39:15;;;;;;;1.65;0.93;;;;;;;5.98;75.28;99506.47;5124394;28;20090;-80
2023/01/15 07:50:21;;;;;;;0.30;0.30;;;;;;;5.92;74.87;99528.31;5112470;28;20089;-80
2023/01/15 07:52:51;;;;;;;0.30;0.30;;;;;;;6.00;75.08;99543.78;5083066;29;20051;-81
2023/01/15 07:55:22;;;;;;;0.30;0.30;;;;;;;5.97;75.04;99541.22;5116152;28;20097;-80
2023/01/15 07:57:53;;;;;;;0.45;0.45;;;;;;;5.93;74.27;99537.84;5101810;28;20031;-82
2023/01/15 08:00:24;;;;;;;5.68;1.30;;;;;;;5.93;74.45;99540.44;5128064;28;20050;-80
2023/01/15 08:02:54;;;;;;;0.30;0.30;;;;;;;5.94;74.65;99549.97;5126210;28;20525;-79
2023/01/15 08:05:25;;;;;;;0.75;0.70;;;;;;;5.86;74.05;99551.06;5117876;28;20038;-80
2023/01/15 08:07:55;;;;;;;0.30;0.30;;;;;;;5.84;73.93;99561.50;5132228;28;20022;-81
2023/01/15 08:10:25;;;;;;;0.30;0.30;;;;;;;5.80;72.29;99558.13;5123553;28;20037;-82
2023/01/15 08:15:45;;;;;;;0.30;0.30;;;;;;;5.73;70.56;99571.38;5137179;28;20564;-82
2023/01/15 08:18:16;;;;;;;0.30;0.30;;;;;;;5.67;71.43;99574.97;5107891;28;20125;-81
2023/01/15 08:20:46;;;;;;;0.30;0.30;;;;;;;5.66;71.25;99579.31;5114073;28;20042;-81
2023/01/15 08:23:16;;;;;;;0.30;0.30;;;;;;;5.59;71.55;99593.38;5132910;28;20042;-82
2023/01/15 08:25:47;;;;;;;0.30;0.30;;;;;;;5.61;71.93;99599.41;5134190;28;20035;-81
2023/01/15 08:28:17;;;;;;;0.30;0.30;;;;;;;5.60;72.14;99597.69;5121114;28;20050;-80
2023/01/15 08:30:48;;;;;;;0.30;0.30;;;;;;;5.59;72.78;99602.94;5118521;28;20054;-80
2023/01/15 08:33:18;;;;;;;0.30;0.30;;;;;;;5.50;73.38;99597.06;5117837;28;20236;-83
2023/01/15 08:35:49;;;;;;;0.30;0.30;;;;;;;5.49;73.81;99597.09;5117154;28;20059;-82
2023/01/15 08:38:19;;;;;;;0.30;0.30;;;;;;;5.45;74.28;99608.47;5132412;28;20026;-82
2023/01/15 08:40:59;;;;;;;0.30;0.30;;;;;;;5.45;74.38;99606.75;5115504;28;20047;-81
2023/01/15 08:43:32;;;;;;;0.30;0.30;;;;;;;5.47;74.18;99594.53;5144256;28;20158;-80
2023/01/15 08:46:04;;;;;;;0.40;0.40;;;;;;;5.47;74.37;99601.50;5123038;28;20060;-80
2023/01/15 08:48:34;;;;;;;0.32;0.32;;;;;;;5.48;74.85;99598.84;5112947;28;20446;-79
2023/01/15 08:51:07;;;;;;;0.75;0.60;;;;;;;5.44;75.43;99598.94;5119373;28;20049;-79
2023/01/15 08:53:38;;;;;;;0.30;0.30;;;;;;;5.41;75.56;99610.28;5136169;28;20114;-80
2023/01/15 08:56:13;;;;;;;0.75;0.75;;;;;;;5.39;75.81;99611.22;5114232;28;20513;-80
2023/01/15 08:58:44;;;;;;;0.30;0.30;;;;;;;5.43;75.79;99608.50;5118033;28;20403;-78
2023/01/15 09:01:14;;;;;;;0.82;0.82;;;;;;;5.41;75.66;99612.88;5125506;28;20058;-78
2023/01/15 09:03:45;;;;;;;0.30;0.30;;;;;;;5.41;75.88;99609.44;5120980;28;20035;-81
2023/01/15 09:06:15;;;;;;;0.93;0.93;;;;;;;5.40;76.19;99612.94;5110909;28;20138;-80
2023/01/15 09:08:46;;;;;;;0.30;0.30;;;;;;;5.39;76.01;99606.84;5111334;28;20127;-79
2023/01/15 09:11:17;;;;;;;0.50;0.50;;;;;;;5.36;75.86;99602.59;5093255;29;20035;-81
2023/01/15 09:13:49;;;;;;;0.30;0.30;;;;;;;5.42;75.62;99590.31;5116467;28;20031;-81
2023/01/15 09:16:19;;;;;;;1.00;0.82;;;;;;;5.36;76.03;99586.97;5130812;28;20443;-82
2023/01/15 09:18:50;;;;;;;0.40;0.40;;;;;;;5.39;75.53;99590.41;5131908;28;20074;-82
2023/01/15 09:21:20;;;;;;;0.32;0.32;;;;;;;5.38;75.78;99575.69;5116770;28;20553;-82
2023/01/15 09:23:51;;;;;;;0.75;0.75;;;;;;;5.44;75.14;99578.13;5131004;28;20035;-82
2023/01/15 09:26:30;;;;;;;0.40;0.40;;;;;;;5.40;74.91;99584.31;5116496;28;20515;-81
2023/01/15 09:29:02;;;;;;;0.30;0.30;;;;;;;5.45;74.21;99574.66;5114916;28;20488;-81
2023/01/15 09:31:32;;;;;;;2.75;2.20;;;;;;;5.49;73.72;99571.09;5120955;28;20502;-80
2023/01/15 09:34:03;;;;;;;0.63;0.63;;;;;;;5.54;74.10;99587.44;5118629;29;20054;-80
2023/01/15 09:36:34;;;;;;;0.70;0.70;;;;;;;5.58;74.15;99573.44;5121118;28;20039;-80
2023/01/15 09:39:07;;;;;;;0.30;0.30;;;;;;;5.57;73.52;99592.56;5113536;29;20043;-80
2023/01/15 09:42:04;;;;;;;0.40;0.40;;;;;;;5.58;73.22;99570.84;5095509;29;20039;-80
2023/01/15 09:45:13;;;;;;;2.75;1.80;;;;;;;5.56;73.12;99584.78;5111407;29;20445;-81
2023/01/15 09:48:08;;;;;;;0.65;0.65;;;;;;;5.58;72.36;99591.66;5123024;28;20066;-81
2023/01/15 09:50:59;;;;;;;1.77;1.05;;;;;;;5.70;72.31;99574.03;5119497;28;20067;-82
2023/01/15 09:53:55;;;;;;;1.20;1.10;;;;;;;5.71;72.37;99592.19;5099753;28;20043;-81
2023/01/15 09:56:29;;;;;;;0.40;0.40;;;;;;;5.73;71.97;99577.41;5116857;28;20046;-80
2023/01/15 09:59:04;;;;;;;;;;;;;;;5.72;71.97;99573.09;5100214;29;20027;-81
2023/01/15 10:01:36;;;;;;;0.60;0.60;;;;;;;5.72;70.43;99562.69;5106625;28;19984;-83
2023/01/15 10:04:37;;;;;;;0.30;0.30;;;;;;;5.77;71.13;99581.66;5141426;28;20085;-85
2023/01/15 10:07:17;;;;;;;0.40;0.40;;;;;;;5.81;70.59;99575.47;5135153;28;20097;-83
2023/01/15 10:10:12;;;;;;;0.30;0.30;;;;;;;5.83;71.09;99580.63;5119481;28;20130;-82
2023/01/15 10:12:44;;;;;;;0.47;0.47;;;;;;;5.85;70.18;99588.41;5117615;28;20070;-81
2023/01/15 10:15:43;;;;;;;0.30;0.30;;;;;;;5.85;69.47;99588.41;5137810;28;20027;-82
2023/01/15 10:18:18;;;;;;;0.30;0.30;;;;;;;5.89;69.34;99603.91;5120558;28;20072;-84
2023/01/15 10:21:07;;;;;;;0.30;0.30;;;;;;;5.92;69.21;99611.63;5137987;28;20122;-86
2023/01/15 10:23:43;;;;;;;0.30;0.30;;;;;;;5.93;68.76;99628.97;5142454;28;20054;-85
2023/01/15 10:26:28;;;;;;;0.70;0.70;;;;;;;5.93;68.35;99623.75;5103902;28;20039;-83
2023/01/15 10:28:58;;;;;;;0.30;0.30;;;;;;;5.95;68.05;99611.56;5118439;28;20106;-85
2023/01/15 10:31:37;;;;;;;3.25;2.05;;;;;;;6.02;67.86;99633.13;5112021;28;20262;-83
2023/01/15 10:34:22;;;;;;;0.30;0.30;;;;;;;6.05;68.95;99642.59;5115776;28;20023;-83
2023/01/15 10:37:22;;;;;;;1.00;0.93;;;;;;;6.08;68.53;99637.31;5099934;28;20101;-81
2023/01/15 10:40:04;;;;;;;4.10;1.75;;;;;;;6.10;68.96;99628.56;5114222;28;20861;-82
2023/01/15 10:43:19;;;;;;;0.40;0.40;;;;;;;6.10;69.03;99627.72;5093944;28;20077;-83
2023/01/15 10:46:00;;;;;;;2.05;0.93;;;;;;;6.11;68.69;99609.47;5086939;28;20094;-81
2023/01/15 10:49:01;;;;;;;0.30;0.30;;;;;;;6.13;67.59;99620.66;5140649;28;20117;-82
2023/01/15 10:51:53;;;;;;;0.40;0.40;;;;;;;6.18;68.48;99617.94;5116899;28;20041;-82
2023/01/15 10:54:49;;;;;;;2.88;1.20;;;;;;;6.23;67.54;99629.13;5137268;28;20038;-83
2023/01/15 10:57:32;;;;;;;0.30;0.30;;;;;;;6.22;67.41;99616.97;5112955;28;20057;-82
2023/01/15 11:00:04;;;;;;;0.30;0.30;;;;;;;6.24;66.46;99633.41;5104317;28;20249;-82
2023/01/15 11:02:48;;;;;;;0.30;0.30;;;;;;;6.29;68.01;99639.34;5097553;28;20043;-82
2023/01/15 11:05:20;;;;;;;0.30;0.30;;;;;;;6.30;66.77;99643.69;5095196;28;20027;-81
2023/01/15 11:07:52;;;;;;;0.30;0.30;;;;;;;6.31;66.72;99649.72;5107512;28;20036;-82
2023/01/15 11:10:23;;;;;;;0.50;0.50;;;;;;;6.30;66.75;99628.03;5084238;28;20038;-83
2023/01/15 11:21:39;;;;;;;0.30;0.30;;;;;;;6.31;66.27;99636.69;5121732;28;20035;-80
2023/01/15 11:24:15;;;;;;;0.30;0.30;;;;;;;6.33;65.96;99641.88;5106074;29;20031;-80
2023/01/15 11:26:50;;;;;;;0.40;0.40;;;;;;;6.29;65.88;99641.09;5090408;29;20063;-79
2023/01/15 11:29:31;;;;;;;0.40;0.40;;;;;;;6.26;66.66;99634.22;5122771;28;20023;-79
2023/01/15 11:32:02;;;;;;;0.50;0.50;;;;;;;6.29;66.56;99638.47;5082113;29;20035;-79
2023/01/15 11:34:32;;;;;;;0.30;0.30;;;;;;;6.26;67.27;99642.03;5100849;29;20037;-79
2023/01/15 11:37:04;;;;;;;0.30;0.30;;;;;;;6.28;67.26;99645.47;5129877;28;20050;-79
2023/01/15 11:39:34;;;;;;;0.30;0.30;;;;;;;6.29;67.00;99639.34;5104290;29;20024;-79
2023/01/15 11:51:14;;;;;;;0.30;0.30;;;;;;;6.30;66.69;99629.78;5119453;29;20050;-79
2023/01/15 11:53:47;;;;;;;;;;;;;;;6.29;66.69;99612.44;5121973;28;20450;-79
2023/01/15 11:56:23;;;;;;;0.30;0.30;;;;;;;6.32;66.47;99598.50;5119727;28;19945;-80
2023/01/15 11:59:00;;;;;;;0.30;0.30;;;;;;;6.33;66.29;99610.59;5105202;28;20035;-79
2023/01/15 12:01:34;;;;;;;0.30;0.30;;;;;;;6.34;66.28;99620.13;5105500;28;20482;-79
2023/01/15 12:04:25;;;;;;;0.30;0.30;;;;;;;6.45;66.15;99626.75;5118192;28;20635;-80
2023/01/15 12:06:56;;;;;;;0.30;0.30;;;;;;;6.53;64.69;99610.91;5121311;28;20054;-81
2023/01/15 12:09:56;;;;;;;0.30;0.30;;;;;;;6.67;65.87;99625.28;5121922;28;20409;-80
2023/01/15 12:12:27;;;;;;;0.30;0.30;;;;;;;6.53;65.48;99610.06;5119875;28;20151;-80
2023/01/15 12:14:57;;;;;;;0.43;0.43;;;;;;;6.50;65.30;99633.59;5118025;28;20497;-78
2023/01/15 12:18:01;;;;;;;0.77;0.77;;;;;;;6.50;66.31;99628.38;5117695;28;20043;-79
2023/01/15 12:21:04;;;;;;;0.30;0.30;;;;;;;6.54;66.04;99622.19;5120534;28;20039;-80
2023/01/15 12:23:40;;;;;;;0.60;0.60;;;;;;;6.64;65.16;99618.44;5122969;28;20023;-79
2023/01/15 12:26:26;;;;;;;0.30;0.30;;;;;;;6.66;66.11;99619.25;5120505;28;20038;-79
2023/01/15 12:29:21;;;;;;;0.30;0.30;;;;;;;6.64;65.11;99609.75;5152986;28;20054;-79
2023/01/15 12:32:01;;;;;;;0.30;0.30;;;;;;;6.56;64.88;99608.22;5134917;28;20053;-80
2023/01/15 12:34:38;;;;;;;0.50;0.50;;;;;;;6.67;64.79;99599.22;5133058;28;20044;-80
2023/01/15 12:37:14;;;;;;;0.30;0.30;;;;;;;6.73;64.68;99610.34;5110614;28;20934;-81
2023/01/15 12:39:50;;;;;;;0.30;0.30;;;;;;;6.84;65.97;99607.41;5144303;28;20323;-80
2023/01/15 12:45:17;;;;;;;1.30;1.20;;;;;;;6.74;64.50;99593.81;5146835;28;20038;-80
2023/01/15 12:47:53;;;;;;;0.20;0.20;;;;;;;6.71;64.25;99616.50;5117736;28;20039;-80
2023/01/15 12:50:44;;;;;;;2.20;0.80;;;;;;;6.66;65.15;99602.72;5148071;28;20054;-80
2023/01/15 12:53:38;;;;;;;0.30;0.30;;;;;;;6.70;65.06;99586.13;5134345;28;20046;-80
2023/01/15 12:56:11;;;;;;;0.30;0.30;;;;;;;6.80;65.43;99604.94;5141491;28;20035;-79
2023/01/15 12:58:47;;;;;;;0.30;0.30;;;;;;;6.78;64.10;99584.13;5113103;28;20042;-80
2023/01/15 13:01:22;;;;;;;0.30;0.30;;;;;;;6.78;64.82;99591.97;5113991;28;20066;-80
2023/01/15 13:04:04;;;;;;;0.30;0.30;;;;;;;6.91;64.67;99595.91;5134450;28;20027;-80